»·PEaware :: N7375Q KPUC-N24

N7375Q :: KPUC-N24

FLIGHT INFORMATION

Flight Status: Arrived
Operator: Privately registered:
United States
More flights under this callsign
Pilot: Ion I. (24133)
Aircraft: SOCATA TBM-900
(TBM9)
More flights by this aircraft type
Origin: KPUC Carbon Co
United States
Destination: N24 Questa Mun Nr 2
United States
More flights between these airports :: More routes between these airports
Route: +WEEMN SINSY HELPS
File this flight plan on PilotEdge
Remarks:
Altitude:
(Current/Filed)
31,000ft
Speed:
(Current/Filed)
315kts
Departed: 21-Aug-20 01:06 PM
Arrived: 21-Aug-20 02:11 PM
Distance/Time
Traveled:
296nm/1:05
Distance/Time
To Go:
Arrived

Flight Plot

Page will automatically refresh every two minutes.

Flight plan parsing failed; only flown route is shown


Map Options




Map Legend


Flown Route
Filed Route
Departure Airport
Arrival Airport
Navaid (VOR, NDB)
Fix

Horizontal Profiles

Position Reports

Time Latitude Longitude Heading Altitude Ground
Speed
21-Aug-20 12:53 39.610124 -110.751171 286 5847ft 0kts
21-Aug-20 12:54 39.610124 -110.751171 286 5847ft 0kts
21-Aug-20 12:54 39.610124 -110.751171 286 5847ft 0kts
21-Aug-20 12:56 39.610124 -110.751171 286 5847ft 0kts
21-Aug-20 12:57 39.610124 -110.751171 286 5847ft 0kts
21-Aug-20 12:57 39.610124 -110.751172 286 5847ft 0kts
21-Aug-20 12:59 39.610124 -110.751171 286 5847ft 0kts
21-Aug-20 13:00 39.608968 -110.751996 198 5836ft 15kts
21-Aug-20 13:00 39.608068 -110.753077 337 5828ft 8kts
21-Aug-20 13:01 39.611214 -110.754673 337 5842ft 17kts
21-Aug-20 13:02 39.614396 -110.756247 340 5841ft 6kts
21-Aug-20 13:03 39.615204 -110.756673 158 5840ft 0kts
21-Aug-20 13:04 39.615204 -110.756673 158 5840ft 0kts
21-Aug-20 13:05 39.608319 -110.753159 156 5830ft 117kts
21-Aug-20 13:06 39.578876 -110.731112 139 7698ft 142kts
21-Aug-20 13:07 39.544142 -110.693902 138 9851ft 180kts
21-Aug-20 13:08 39.503473 -110.650242 139 11891ft 199kts
21-Aug-20 13:09 39.483799 -110.582900 103 13931ft 206kts
21-Aug-20 13:10 39.469991 -110.510109 103 15946ft 210kts
21-Aug-20 13:11 39.455912 -110.435898 103 17806ft 219kts
21-Aug-20 13:12 39.440763 -110.356367 102 19366ft 235kts
21-Aug-20 13:13 39.424706 -110.272384 103 20896ft 246kts
21-Aug-20 13:14 39.408004 -110.185427 103 22403ft 252kts
21-Aug-20 13:15 39.390992 -110.097235 103 23901ft 254kts
21-Aug-20 13:16 39.373812 -110.008533 103 25389ft 254kts
21-Aug-20 13:17 39.346612 -109.925274 119 26875ft 253kts
21-Aug-20 13:18 39.310711 -109.845957 120 28388ft 258kts
21-Aug-20 13:19 39.274352 -109.766046 120 29884ft 258kts
21-Aug-20 13:20 39.237792 -109.685919 120 31076ft 269kts
21-Aug-20 13:21 39.196960 -109.596631 120 31078ft 305kts
21-Aug-20 13:22 39.152622 -109.499957 119 31069ft 320kts
21-Aug-20 13:23 39.106895 -109.400587 119 31068ft 325kts
21-Aug-20 13:24 39.060784 -109.300707 120 31067ft 327kts
21-Aug-20 13:25 39.014166 -109.200051 120 31064ft 327kts
21-Aug-20 13:26 38.967570 -109.099758 120 31077ft 327kts
21-Aug-20 13:27 38.920759 -108.999320 120 31093ft 327kts
21-Aug-20 13:28 38.874089 -108.899502 120 31101ft 327kts
21-Aug-20 13:29 38.827183 -108.799490 120 31100ft 328kts
21-Aug-20 13:30 38.779058 -108.699961 126 31071ft 329kts
21-Aug-20 13:31 38.721058 -108.604444 127 30109ft 347kts
21-Aug-20 13:32 38.660983 -108.506285 127 29118ft 353kts
21-Aug-20 13:33 38.600129 -108.407159 127 28119ft 352kts
21-Aug-20 13:34 38.540235 -108.309893 127 27107ft 346kts
21-Aug-20 13:35 38.480854 -108.213753 127 26098ft 343kts
21-Aug-20 13:36 38.421727 -108.118286 127 25095ft 342kts
21-Aug-20 13:37 38.362939 -108.023673 127 24191ft 336kts
21-Aug-20 13:38 38.303614 -107.928435 126 22386ft 351kts
21-Aug-20 13:39 38.242497 -107.830629 127 20390ft 355kts
21-Aug-20 13:40 38.181277 -107.732989 127 18388ft 351kts
21-Aug-20 13:41 38.122251 -107.639103 126 17136ft 318kts
21-Aug-20 13:42 38.069755 -107.555789 127 17217ft 292kts
21-Aug-20 13:43 38.019218 -107.475901 126 17206ft 288kts
21-Aug-20 13:44 37.969102 -107.396724 127 17196ft 290kts
21-Aug-20 13:45 37.918067 -107.316409 127 17217ft 292kts
21-Aug-20 13:46 37.866748 -107.235787 127 17148ft 294kts
21-Aug-20 13:47 37.816791 -107.157477 127 17578ft 286kts
21-Aug-20 13:48 37.765837 -107.077813 127 17540ft 293kts
21-Aug-20 13:49 37.714290 -106.997425 127 17534ft 294kts
21-Aug-20 13:50 37.662767 -106.917259 127 17536ft 294kts
21-Aug-20 13:51 37.611225 -106.837269 127 17539ft 294kts
21-Aug-20 13:52 37.559690 -106.757121 127 17536ft 294kts
21-Aug-20 13:53 37.508167 -106.677139 127 17537ft 294kts
21-Aug-20 13:54 37.456505 -106.597141 127 17537ft 294kts
21-Aug-20 13:55 37.404827 -106.517318 127 17541ft 294kts
21-Aug-20 13:56 37.350183 -106.433100 127 15990ft 325kts
21-Aug-20 13:57 37.293836 -106.346507 127 14017ft 315kts
21-Aug-20 13:58 37.239714 -106.263538 127 12490ft 310kts
21-Aug-20 13:59 37.186763 -106.182589 127 11804ft 286kts
21-Aug-20 14:00 37.134186 -106.102363 127 10007ft 300kts
21-Aug-20 14:01 37.084534 -106.026798 128 9677ft 271kts
21-Aug-20 14:02 37.037008 -105.954631 128 9644ft 267kts
21-Aug-20 14:03 36.989847 -105.883171 128 9609ft 266kts
21-Aug-20 14:04 36.941890 -105.810873 128 9249ft 273kts
21-Aug-20 14:05 36.891746 -105.739159 128 9013ft 270kts
21-Aug-20 14:06 36.845004 -105.673367 129 9002ft 227kts
21-Aug-20 14:07 36.800493 -105.635799 177 9024ft 178kts
21-Aug-20 14:08 36.764627 -105.623814 84 8662ft 108kts
21-Aug-20 14:09 36.778557 -105.598587 14 8133ft 95kts
21-Aug-20 14:10 36.801521 -105.597407 2 7671ft 34kts
21-Aug-20 14:11 36.800900 -105.597466 179 7672ft 17kts
21-Aug-20 14:12 36.794040 -105.597505 179 7682ft 25kts
21-Aug-20 14:13 36.792427 -105.599147 100 7676ft 3kts
21-Aug-20 14:14 36.792425 -105.598948 90 7678ft 0kts
21-Aug-20 14:15 36.792425 -105.598948 90 7678ft 0kts
21-Aug-20 14:16 36.792425 -105.598948 90 7678ft 0kts
21-Aug-20 14:17 36.792425 -105.598948 90 7678ft 0kts
21-Aug-20 14:18 36.792425 -105.598948 90 7678ft 0kts
21-Aug-20 14:19 36.792425 -105.598948 90 7678ft 0kts
21-Aug-20 14:20 36.792425 -105.598948 90 7678ft 0kts
21-Aug-20 14:21 36.792425 -105.598948 90 7678ft 0kts
21-Aug-20 14:22 36.792425 -105.598948 90 7678ft 0kts
21-Aug-20 14:23 36.792425 -105.598948 90 7678ft 0kts
21-Aug-20 14:24 36.792425 -105.598948 90 7678ft 0kts

Navigation Log

Ident Type
Flight plan parsing failed, navigation log unavailable